M I D A S
Marine Information and Data Acquisition System
Tripno 149 of the Zeeleeuw from 2001-08-14 05:36:19 to 2001-08-14 20:05:00
Back to CruiseResearch ActivitiesStationsMapUnderway DataData graphs

EquipmentUnitsComment
TimeDGPSUTC
LatitudeDGPSDM.mWGS84
LongitudeDGPSDM.mWGS84
HeadingGyrodeg 
SOGDGPSknotsSpeed over ground
COGDGPSdegCourse over ground
DepthEcho soundermeters200 kHz
Missing or incorrect values are displayed as -999
Navigation data collected by the RV Zeeleeuw from 2001-08-14 05:36:19 to 2001-08-14 20:05:00
Time Latitude Longitude Heading SOG COG Depth
2001-08-14 05:37:25 51°13.675 2°55.922 359.8   354.6 -999
2001-08-14 06:48:03 51°13.678 2°55.924 129.8   198.3 8.1
2001-08-14 06:49:03 51°13.678 2°55.924 129.8   177.4 8.5
2001-08-14 06:50:03 51°13.678 2°55.923 130   14.6 8.3
2001-08-14 06:51:03 51°13.678 2°55.923 129.8   178.1 7.8
2001-08-14 06:52:03 51°13.678 2°55.923 130.2   129.1 7.9
2001-08-14 06:53:03 51°13.677 2°55.923 131.2   173.5 8.4
2001-08-14 06:54:03 51°13.676 2°55.924 131.2   20.3 -999
2001-08-14 06:55:03 51°13.676 2°55.924 131.5   188.5 8.7
2001-08-14 06:56:01 51°13.676 2°55.924 132.2 0.1 141.7 8.7
2001-08-14 06:57:03 51°13.676 2°55.926 129.5   317 8.7
2001-08-14 06:58:03 51°13.676 2°55.926 130.7   165.5 8.7
2001-08-14 06:59:01 51°13.676 2°55.927 124.2   162.5 8.7
2001-08-14 07:00:01 51°13.675 2°55.928 115   166.8 8.7
2001-08-14 07:01:03 51°13.677 2°55.919 109.5 0.8 294.1 9.1
2001-08-14 07:02:03 51°13.687 2°55.865 99.5 2.9 281.3 -999
2001-08-14 07:03:03 51°13.69 2°55.778 88 3.2 269.3 13.5
2001-08-14 07:04:03 51°13.69 2°55.723 61.5 0.6 0.4 14.3
2001-08-14 07:05:03 51°13.761 2°55.7 332.3 5.6 330 12.1
2001-08-14 07:06:03 51°13.836 2°55.619 330.3 5.4 326.3 12.7
2001-08-14 07:07:01 51°13.914 2°55.556 342.5 5.7 337.1 12.3
2001-08-14 07:08:03 51°14.01 2°55.505 345.5 5.9 341.3 12.3
2001-08-14 07:09:03 51°14.092 2°55.456 342.8 5 338.2 12.1
2001-08-14 07:10:01 51°14.174 2°55.392 333.3 6.3 329.5 12.2
2001-08-14 07:11:03 51°14.263 2°55.276 315.8 6.9 312.7 12.3
2001-08-14 07:12:03 51°14.338 2°55.131 311 7.3 307.5 12.2
2001-08-14 07:13:03 51°14.454 2°55.006 335.7 10 335.8 12
2001-08-14 07:14:02 51°14.631 2°54.876 334.5 13 334.2 11.3
2001-08-14 07:15:03 51°14.833 2°54.712 328.3 13.4 329 11.3
2001-08-14 07:16:03 51°15.011 2°54.501 326 13.4 325.6 10.5
2001-08-14 07:17:03 51°15.195 2°54.298 325.7 13.6 325.2 10.9
2001-08-14 07:18:01 51°15.373 2°54.097 325.8 13.6 325.6 11.6
2001-08-14 07:19:01 51°15.557 2°53.891 326.5 13.6 325.7 12.5
2001-08-14 07:20:02 51°15.743 2°53.678 325.7 13.5 325.3 13.3
2001-08-14 07:21:01 51°15.924 2°53.477 325.3 13.5 324.8 13.9
2001-08-14 07:22:03 51°16.119 2°53.277 329.5 13.5 328.9 14.3
2001-08-14 07:23:03 51°16.317 2°53.103 333.2 13.6 332.7 14.5
2001-08-14 07:24:01 51°16.517 2°52.958 335 13.6 334.7 14
2001-08-14 07:25:01 51°16.72 2°52.797 333 13.6 332.2 12.7
2001-08-14 07:26:03 51°16.93 2°52.631 336.5 13.7 335.2 11.9
2001-08-14 07:27:03 51°17.137 2°52.475 335 13.7 334.3 11.9
2001-08-14 07:28:01 51°17.332 2°52.31 330.5 13.7 330.4 12.5
2001-08-14 07:29:01 51°17.519 2°52.103 319.5 13.6 319.6 12.6
2001-08-14 07:30:01 51°17.647 2°51.819 298 13.1 298.1 12.4
2001-08-14 07:31:01 51°17.732 2°51.501 290.2 13.1 290.1 12.1
2001-08-14 07:32:01 51°17.812 2°51.177 292.7 13.2 292.4 12.6
2001-08-14 07:33:03 51°17.897 2°50.844 291.5 13.1 291.6 14.1
2001-08-14 07:34:03 51°17.985 2°50.524 293.7 13.1 293.4 14.8
2001-08-14 07:35:01 51°18.063 2°50.213 291.3 13.1 290.8 15.8
2001-08-14 07:36:01 51°18.143 2°49.889 292.5 13.1 291.6 15.9
2001-08-14 07:37:03 51°18.228 2°49.556 293.2 13.1 292.3 15.2
2001-08-14 07:38:03 51°18.306 2°49.232 291.3 13 290.1 13.2
2001-08-14 07:39:01 51°18.383 2°48.922 293.2 13 292 12.6
2001-08-14 07:40:03 51°18.466 2°48.591 293.8 13 292.8 12.5
2001-08-14 07:41:03 51°18.554 2°48.272 294.7 13.1 293.4 14.7
2001-08-14 07:42:01 51°18.642 2°47.966 295.5 13.1 295.2 16.5
2001-08-14 07:43:01 51°18.734 2°47.653 296 13.1 296 18.6
2001-08-14 07:44:03 51°18.825 2°47.325 290.5 13 291 20.7
2001-08-14 07:45:03 51°18.903 2°47.005 290.7 12.9 290.5 22
2001-08-14 07:46:02 51°18.98 2°46.689 293.2 13 292.6 22.9
2001-08-14 07:47:03 51°19.056 2°46.359 290.7 13 289.6 22.9
2001-08-14 07:48:03 51°19.13 2°46.033 290.7 13 289.4 22.3
2001-08-14 07:49:03 51°19.209 2°45.711 293.2 13 292.2 19.1
2001-08-14 07:50:01 51°19.278 2°45.399 291.8 12.8 290.8 15.1
2001-08-14 07:51:03 51°19.358 2°45.075 290.8 12.6 290.6 14.2
2001-08-14 07:52:03 51°19.438 2°44.759 291.7 12.9 292 22.7
2001-08-14 07:53:03 51°19.518 2°44.443 292.2 12.9 292.6 -999
2001-08-14 07:54:03 51°19.594 2°44.12 287.3 12.9 287.7 -999
2001-08-14 07:55:03 51°19.67 2°43.798 290.5 13 290.6 -999
2001-08-14 07:56:03 51°19.746 2°43.473 290.7 13.1 290.1 -999
2001-08-14 07:57:03 51°19.82 2°43.146 290.7 13.1 289.8 -999
2001-08-14 07:58:03 51°19.894 2°42.818 290.3 13 289 -999
2001-08-14 07:59:03 51°19.963 2°42.489 290.5 13.1 288.9 -999
2001-08-14 08:00:01 51°20.031 2°42.172 287.7 12.9 286 23
2001-08-14 08:01:01 51°20.099 2°41.845 290 13 288.9 18.5
2001-08-14 08:02:03 51°20.185 2°41.517 295.8 12.9 295.2 21.7
2001-08-14 08:03:03 51°20.265 2°41.198 290.7 12.9 290.8 21.4
2001-08-14 08:04:03 51°20.345 2°40.881 290.5 12.8 291.1 -999
2001-08-14 08:05:03 51°20.42 2°40.56 288.2 12.9 288.7 -999
2001-08-14 08:06:03 51°20.49 2°40.235 288.8 13 289.3 -999
2001-08-14 08:07:03 51°20.56 2°39.907 290.8 13.1 290.6 -999
2001-08-14 08:08:03 51°20.628 2°39.578 285.3 13 285.5 -999
2001-08-14 08:09:03 51°20.683 2°39.245 285 12.9 284.9 -999
2001-08-14 08:10:03 51°20.734 2°38.911 284.7 13 284.4 -999
2001-08-14 08:11:03 51°20.786 2°38.576 281.5 13 281.8 -999
2001-08-14 08:12:03 51°20.832 2°38.24 284 12.9 283.3 -999
2001-08-14 08:13:03 51°20.88 2°37.905 282.8 12.9 282.3 -999
2001-08-14 08:14:03 51°20.927 2°37.571 281.7 12.9 281.4 -999
2001-08-14 08:15:03 51°20.981 2°37.239 289.3 12.9 288.3 -999
2001-08-14 08:16:03 51°21.066 2°36.923 298.7 13 297.9 -999
2001-08-14 08:17:03 51°21.207 2°36.66 321.5 13.4 320.5 -999
2001-08-14 08:18:03 51°21.418 2°36.544 353.8 13.9 352.1 -999
2001-08-14 08:19:03 51°21.654 2°36.524 358.7 14.2 357.2 -999
2001-08-14 08:20:03 51°21.89 2°36.501 359 14.2 358 -999
2001-08-14 08:21:03 51°22.128 2°36.502 1.3 14.3 0.5 -999
2001-08-14 08:22:03 51°22.367 2°36.523 4 14.4 3.7 -999
2001-08-14 08:23:03 51°22.601 2°36.497 353.8 14.1 352.8 -999
2001-08-14 08:24:03 51°22.83 2°36.426 343.7 13.9 343.4 -999
2001-08-14 08:25:03 51°23.046 2°36.295 337.7 13.8 337.7 -999
2001-08-14 08:26:03 51°23.253 2°36.135 331.8 13.8 331.8 -999
2001-08-14 08:27:03 51°23.449 2°35.95 329.5 13.7 329 -999
2001-08-14 08:28:03 51°23.656 2°35.785 335.3 13.9 335.3 -999
2001-08-14 08:29:03 51°23.863 2°35.623 333.2 13.9 332.8 -999
2001-08-14 08:30:03 51°24.073 2°35.467 333.5 13.9 334.3 -999
2001-08-14 08:31:03 51°24.281 2°35.309 336.5 13.9 336.8 -999
2001-08-14 08:32:03 51°24.506 2°35.205 349.5 14.1 349 -999
2001-08-14 08:33:03 51°24.741 2°35.157 353.3 14.3 353.1 -999
2001-08-14 08:34:03 51°24.977 2°35.113 355.3 14.4 355.1 -999
2001-08-14 08:35:03 51°25.214 2°35.083 358.8 14.3 357.5 -999
2001-08-14 08:36:03 51°25.451 2°35.045 352.3 14.2 351.9 -999
2001-08-14 08:37:03 51°25.687 2°35.018 357 14.2 356.8 -999
2001-08-14 08:38:03 51°25.921 2°34.99 355.3 14 354.1 -999
2001-08-14 08:39:03 51°26.156 2°34.985 2.3 14.2 0.9 -999
2001-08-14 08:40:03 51°26.39 2°34.971 356.2 14 355.4 -999
2001-08-14 08:41:03 51°26.623 2°34.941 359 13.9 357.2 -999
2001-08-14 08:42:03 51°26.858 2°34.95   14.3 0.2 -999
2001-08-14 08:43:03 51°27.094 2°34.972 3.7 14.2 2.6 -999
2001-08-14 08:44:03 51°27.331 2°35.002 6.2 14.4 5.6 -999
2001-08-14 08:45:03 51°27.571 2°35.04 6.8 14.5 6.4 -999
2001-08-14 08:46:03 51°27.811 2°35.073 5.5 14.6 4.1 -999
2001-08-14 08:47:03 51°28.051 2°35.114 10 14.5 9 -999
2001-08-14 08:48:03 51°28.291 2°35.138 5.8 14.4 3.8 -999
2001-08-14 08:49:03 51°28.532 2°35.179 7.3 14.6 6 -999
2001-08-14 08:50:03 51°28.773 2°35.224 8.2 14.5 7.3 -999
2001-08-14 08:51:03 51°29.013 2°35.272 7.5 14.6 6.1 -999
2001-08-14 08:52:03 51°29.253 2°35.304 4.7 14.6 3.4 -999
2001-08-14 08:53:03 51°29.496 2°35.348 4.8 14.7 3.9 -999
2001-08-14 08:54:03 51°29.738 2°35.388 9.7 14.5 7.5 -999
2001-08-14 08:55:03 51°29.979 2°35.436 8.8 14.5 6.3 -999
2001-08-14 08:56:03 51°30.219 2°35.475 9.5 14.5 6.6 -999
2001-08-14 08:57:03 51°30.458 2°35.526 10.8 14.7 8.1 -999
2001-08-14 08:58:03 51°30.697 2°35.575 7.7 14.4 5.3 -999
2001-08-14 08:59:03 51°30.932 2°35.641 17 14.4 14.1 -999
2001-08-14 09:00:03 51°31.17 2°35.691 6.7 14.4 4.2 -999
2001-08-14 09:01:03 51°31.409 2°35.707 7.5 14.4 3.8 -999
2001-08-14 09:02:03 51°31.647 2°35.732 6 14.3 2.8 -999
2001-08-14 09:03:03 51°31.885 2°35.753 8.3 14.4 5.5 -999
2001-08-14 09:04:03 51°32.123 2°35.771 5.3 14.4 2.9 -999
2001-08-14 09:05:03 51°32.361 2°35.779 5.7 14.1 2.5 -999
2001-08-14 09:06:03 51°32.599 2°35.791 1.2 14.3 359.4 -999
2001-08-14 09:07:03 51°32.835 2°35.807 3.3 14.3 1 -999
2001-08-14 09:08:03 51°33.074 2°35.813 3 14.3 359.9 -999
2001-08-14 09:09:03 51°33.312 2°35.837 4.3 14.4 3 -999
2001-08-14 09:10:03 51°33.55 2°35.859 6.5 14.4 4.5 -999
2001-08-14 09:11:03 51°33.789 2°35.88 5.3 14.5 2.9 32.1
2001-08-14 09:12:03 51°34.028 2°35.898 5.2 14.4 2.5 28.3
2001-08-14 09:13:01 51°34.228 2°35.917 8.5 11.4 6.7 30.1
2001-08-14 09:14:03 51°34.416 2°35.949 8 10.8 5.9 30.5
2001-08-14 09:15:03 51°34.593 2°35.974 8.8 10.7 6.2 31.9
2001-08-14 09:16:03 51°34.771 2°35.991 4.7 10.7 3.1 33.6
2001-08-14 09:17:03 51°34.948 2°36.008 6 10.6 3.5 34.9
2001-08-14 09:18:03 51°35.109 2°36.025 4.5 9.5 3.8 36.1
2001-08-14 09:19:03 51°35.265 2°36.052 8.3 9.4 6.8 35.6
2001-08-14 09:20:03 51°35.418 2°36.09 11.3 9.3 9.4 37.7
2001-08-14 09:21:01 51°35.567 2°36.127 10.3 9.4 9.8 35
2001-08-14 09:22:03 51°35.727 2°36.164 8.7 9.5 7.7 37.1
2001-08-14 09:23:03 51°35.884 2°36.204 10.2 9.5 8.6 38.4
2001-08-14 09:24:03 51°36.039 2°36.238 5.2 9.4 5 37.1
2001-08-14 09:25:03 51°36.194 2°36.277 12.5 9.4 10.3 37.2
2001-08-14 09:26:03 51°36.348 2°36.321 10.3 9.4 9.1 38.5
2001-08-14 09:27:03 51°36.501 2°36.364 12.7 9.3 10.9 39.4
2001-08-14 09:28:01 51°36.646 2°36.402 12.7 9.1 11.1 39.5
2001-08-14 09:29:03 51°36.801 2°36.445 12.5 9.1 10.1 39.5
2001-08-14 09:30:03 51°36.951 2°36.482 9 9.1 7.8 38.5
2001-08-14 09:31:03 51°37.101 2°36.511 7.7 9.1 6.7 38.9
2001-08-14 09:32:03 51°37.247 2°36.541 3.8 8.2 4.3 39.4
2001-08-14 09:33:03 51°37.356 2°36.544 358.5 5.9 1.4 38.1
2001-08-14 09:34:03 51°37.443 2°36.546 354.3 4.8 359.9 40.1
2001-08-14 09:35:03 51°37.51 2°36.539 340.5 3.6 352.7 39.9
2001-08-14 09:36:03 51°37.531 2°36.554 337.8 1.4 92.8 20
2001-08-14 09:37:03 51°37.536 2°36.585 342.7 1.2 65.9 39.3
2001-08-14 09:38:03 51°37.548 2°36.614 347.3 1.3 51 40.4
2001-08-14 09:39:03 51°37.565 2°36.639 351.3 1.4 39.6 40.2
2001-08-14 09:40:03 51°37.592 2°36.654 330.2 1.9 5.7 40.4
2001-08-14 09:41:03 51°37.622 2°36.643 293.5 1.8 334.8 40.1
2001-08-14 09:42:01 51°37.642 2°36.612 261 1.6 302.9 40.2
2001-08-14 09:43:03 51°37.644 2°36.581 222.5 0.9 243.1 39.7
2001-08-14 09:44:03 51°37.624 2°36.569 203.8 1.9 196.1 39.8
2001-08-14 09:45:03 51°37.587 2°36.545 213.3 2.2 205.6 39.8
2001-08-14 09:46:03 51°37.561 2°36.521 211 1.7 204.3 40.1
2001-08-14 09:47:03 51°37.536 2°36.521 194 1.6 172.3 39.8
2001-08-14 09:48:03 51°37.52 2°36.525 206.3 0.3 119.3 40.1
2001-08-14 09:49:03 51°37.521 2°36.532 213.2 0.4 62.5 39.9
2001-08-14 09:50:01 51°37.526 2°36.541 218.7 0.6 38.6 40
2001-08-14 09:51:03 51°37.537 2°36.552 226.7 0.8 31 39
2001-08-14 09:52:03 51°37.552 2°36.565 238.7 1.1 27.7 40.1
2001-08-14 09:53:03 51°37.571 2°36.581 256.7 1.4 27.2 40.1
2001-08-14 09:54:01 51°37.591 2°36.597 272.2 1.4 28 40.1
2001-08-14 09:55:03 51°37.612 2°36.615 289.5 1.4 29.5 39.4
2001-08-14 09:56:03 51°37.646 2°36.605 320.8 3.9 331.1 40.1
2001-08-14 09:57:03 51°37.743 2°36.658 57.3 6.7 47.2 40.2
2001-08-14 09:58:03 51°37.745 2°36.804 135.2 5.2 117.4 39.6
2001-08-14 09:59:01 51°37.667 2°36.892 158 7.7 149.3 39
2001-08-14 10:00:03 51°37.535 2°37.016 158.8 9.2 152.3 40.1
2001-08-14 10:01:03 51°37.397 2°37.167 153.7 10.8 146.6 40.2
2001-08-14 10:02:03 51°37.237 2°37.317 156.3 11.2 150.3 38.6
2001-08-14 10:03:03 51°37.072 2°37.452 162 11.1 155.7 38.1
2001-08-14 10:04:03 51°36.916 2°37.559 167.7 8 159.9 38.5
2001-08-14 10:05:03 51°36.87 2°37.573 220.3 0.3 66.9 37.5
2001-08-14 10:06:03 51°36.876 2°37.575 236.8 0.5 10.8 37.6
2001-08-14 10:07:03 51°36.889 2°37.577 255.2 0.9 6.5 38.4
2001-08-14 10:08:03 51°36.906 2°37.58 272.3 1.1 8.4 38.2
2001-08-14 10:09:03 51°36.903 2°37.52 226.2 3.7 230.7 38.3
2001-08-14 10:10:03 51°36.819 2°37.559 146.3 7.8 139.7 36.2
2001-08-14 10:11:03 51°36.717 2°37.755 133.5 10.1 126.5 37
2001-08-14 10:12:01 51°36.629 2°37.981 129.7 10.4 122.2 37.9
2001-08-14 10:13:03 51°36.531 2°38.22 133.2 10.3 125.8 39.4
2001-08-14 10:14:03 51°36.433 2°38.444 133 10.3 125.4 39.3
2001-08-14 10:15:03 51°36.32 2°38.639 143.5 9.4 135.4 38.1
2001-08-14 10:16:03 51°36.259 2°38.769 130.7 4.8 115.3 37.6
2001-08-14 10:17:03 51°36.265 2°38.824 90.7 1.4 37.7 37.2
2001-08-14 10:18:03 51°36.285 2°38.84 67.8 1.4 26.8 37.2
2001-08-14 10:19:03 51°36.306 2°38.858 52 1.5 26 36.6
2001-08-14 10:20:03 51°36.33 2°38.877 42.8 1.6 26.5 37.7
2001-08-14 10:21:03 51°36.369 2°38.955 83.5 6.2 69.8 35.7
2001-08-14 10:22:03 51°36.295 2°39.056 189.8 7.4 182.8 36.4
2001-08-14 10:23:03 51°36.159 2°38.895 218.7 12 219.2 37.4
2001-08-14 10:24:03 51°35.994 2°38.697 219.7 12.5 219.1 37.8
2001-08-14 10:25:03 51°35.824 2°38.508 218.5 12.5 218.4 39.3
2001-08-14 10:26:03 51°35.653 2°38.315 213.3 12.5 213.2 38.9
2001-08-14 10:27:03 51°35.483 2°38.122 215.5 12.5 214.9 40.3
2001-08-14 10:28:03 51°35.316 2°37.92 217.3 12.5 217 40.1
2001-08-14 10:29:01 51°35.145 2°37.749 213.2 12.6 212.3 39
2001-08-14 10:30:03 51°34.974 2°37.535 220 12.7 220 39.2
2001-08-14 10:31:03 51°34.805 2°37.335 216.2 12.6 215.5 39.2
2001-08-14 10:32:03 51°34.703 2°37.171 241.2 5.9 241.1 37.7
2001-08-14 10:33:03 51°34.7 2°37.118 243.7 0.9 356.4 37.5
2001-08-14 10:34:03 51°34.715 2°37.119 269.2 0.9 0.9 37.6
2001-08-14 10:35:03 51°34.732 2°37.119 283 1 359.7 25.7
2001-08-14 10:36:03 51°34.751 2°37.112 283.8 1.6 320.6 37.2
2001-08-14 10:37:03 51°34.806 2°36.948 310 9.6 308.6 35.7
2001-08-14 10:38:03 51°34.949 2°36.769 320.7 11.2 320.5 35.2
2001-08-14 10:39:03 51°35.09 2°36.566 319.7 11.4 318.4 33.7
2001-08-14 10:40:03 51°35.228 2°36.363 314.7 11 313.9 35.6
2001-08-14 10:41:03 51°35.318 2°36.222 318.7 6.1 319.4 35.8
2001-08-14 10:42:03 51°35.361 2°36.174 300.7 0.8 37.3 36
2001-08-14 10:43:03 51°35.373 2°36.188 308.8 0.9 33.7 -999
2001-08-14 10:44:03 51°35.387 2°36.199 317.2 0.9 19.8 -999
2001-08-14 10:45:03 51°35.401 2°36.207 324.5 1.1 7.9 39
2001-08-14 10:46:03 51°35.482 2°36.242 50 8 44.1 35.9
2001-08-14 10:47:03 51°35.441 2°36.465 143.3 11 138.2 34.6
2001-08-14 10:48:03 51°35.285 2°36.696 142.3 13 139.1 34.7
2001-08-14 10:49:03 51°35.126 2°36.933 144.7 13.1 140.7 32.4
2001-08-14 10:50:03 51°34.967 2°37.17 139.7 13 135.3 36
2001-08-14 10:51:03 51°34.8 2°37.391 141.3 13 137.4 39.1
2001-08-14 10:52:03 51°34.635 2°37.617 144.3 13 140 39.8
2001-08-14 10:53:03 51°34.473 2°37.846 143.7 13 139 39.9
2001-08-14 10:54:03 51°34.325 2°38.061 144.3 9.6 137.9 37.9
2001-08-14 10:55:03 51°34.254 2°38.147 179.2 1.9 160.5 36.3
2001-08-14 10:56:03 51°34.254 2°38.151 219 0.2 13.1 36.2
2001-08-14 10:57:03 51°34.26 2°38.148 235.3 0.6 353.1 36.3
2001-08-14 10:58:03 51°34.271 2°38.148 243.8 0.8 353.1 36.4
2001-08-14 10:59:03 51°34.284 2°38.146 248.7 0.8 356.8 36.5
2001-08-14 11:00:03 51°34.299 2°38.145 249.5 0.9 358.2 36.8
2001-08-14 11:01:03 51°34.313 2°38.145 249.2 0.9 358.7 37.1
2001-08-14 11:02:03 51°34.327 2°38.145 248 0.9 359.8 37.3
2001-08-14 11:03:03 51°34.287 2°38.14 154.3 4.8 146.8 36.5
2001-08-14 11:04:03 51°34.309 2°38.291 55.7 8 50.1 36.4
2001-08-14 11:05:03 51°34.358 2°38.591 90.3 13.2 84 34.4
2001-08-14 11:06:03 51°34.387 2°38.949 87.5 13.5 81.7 30.1
2001-08-14 11:07:03 51°34.408 2°39.305 87.8 13.4 83.3 28.5
2001-08-14 11:08:03 51°34.443 2°39.659 87.2 13.3 82 22.6
2001-08-14 11:09:03 51°34.469 2°40.013 86.7 13.5 81.5 18.6
2001-08-14 11:10:03 51°34.565 2°40.325 50.5 13.5 44.4 15.2
2001-08-14 11:11:03 51°34.735 2°40.568 43.7 13.8 38.4 21.4
2001-08-14 11:12:03 51°34.942 2°40.726 27.5 13.8 21.8 21.9
2001-08-14 11:13:03 51°35.158 2°40.855 25.3 13.9 19.6 19.2
2001-08-14 11:14:03 51°35.374 2°40.979 27.7 13.7 22.3 16.8
2001-08-14 11:15:03 51°35.587 2°41.113 26.7 13.7 21.4 20.8
2001-08-14 11:16:03 51°35.8 2°41.243 25.5 13.7 20.4 22.2
2001-08-14 11:17:03 51°36.015 2°41.372 26.8 13.8 22 25
2001-08-14 11:18:03 51°36.231 2°41.501 23.5 13.7 18.9 28.3
2001-08-14 11:19:03 51°36.445 2°41.631 24.2 13.8 19 28.7
2001-08-14 11:20:03 51°36.665 2°41.74 22.8 13.8 18.4 29.7
2001-08-14 11:21:03 51°36.884 2°41.858 21.5 13.8 16.7 32.1
2001-08-14 11:22:03 51°37.102 2°41.974 21.5 13.9 17.7 34
2001-08-14 11:23:03 51°37.325 2°42.075 19.3 13.9 15.1 34.4
2001-08-14 11:24:03 51°37.548 2°42.171 16.8 13.8 12 34.5
2001-08-14 11:25:03 51°37.77 2°42.273 21.3 13.9 16.9 35
2001-08-14 11:26:03 51°37.991 2°42.374 16.5 13.8 12.4 34.9
2001-08-14 11:27:03 51°38.214 2°42.471 18.5 13.9 14.3 35.1
2001-08-14 11:28:03 51°38.435 2°42.584 22.2 13.9 17.6 35.8
2001-08-14 11:29:03 51°38.658 2°42.696 22.8 14.1 17.9 35.1
2001-08-14 11:30:03 51°38.879 2°42.811 22.5 13.9 17.2 35.1
2001-08-14 11:31:03 51°39.095 2°42.936 25 13.7 19.9 36.2
2001-08-14 11:32:03 51°39.316 2°43.047 22.3 14 17.5 35.1
2001-08-14 11:33:03 51°39.539 2°43.152 22.3 14.1 17.4 34.5
2001-08-14 11:34:03 51°39.763 2°43.256 18.7 14 14.2 35.6
2001-08-14 11:35:03 51°39.917 2°43.304 359.7 5.8 358.7 35.1
2001-08-14 11:36:03 51°39.978 2°43.232 285.8 5 289.7 35.7
2001-08-14 11:37:03 51°39.928 2°43.149 186.2 5.3 185.3 34.6
2001-08-14 11:38:03 51°39.84 2°43.213 149 5.6 144.2 33.6
2001-08-14 11:39:03 51°39.797 2°43.287 127.8 1.8 112.6 34.2
2001-08-14 11:40:03 51°39.802 2°43.302 105.3 0.7 50.2 34.5
2001-08-14 11:41:03 51°39.811 2°43.317 84.7 0.8 41.7 34.9
2001-08-14 11:42:03 51°39.821 2°43.33 75.5 0.9 37 37.2
2001-08-14 11:43:03 51°39.83 2°43.44 107.3 6.7 98.7 36.2
2001-08-14 11:44:03 51°39.748 2°43.614 130.8 9.4 126.8 35.7
2001-08-14 11:45:03 51°39.651 2°43.829 135.7 10.1 130.9 35.5
2001-08-14 11:46:03 51°39.561 2°44.031 118.7 7.4 113.5 36.3
2001-08-14 11:47:03 51°39.546 2°44.144 126.7 1.9 108.6 35.9
2001-08-14 11:48:03 51°39.544 2°44.163 157.8 0.5 105.2 35.7
2001-08-14 11:49:03 51°39.541 2°44.174 166.5 0.4 108.5 35.8
2001-08-14 11:50:03 51°39.54 2°44.183 168.8 0.3 83.5 35.6
2001-08-14 11:51:03 51°39.493 2°44.247 134.3 7.1 129.5 35.3
2001-08-14 11:52:03 51°39.42 2°44.448 135.2 9.5 130 37.4
2001-08-14 11:53:03 51°39.321 2°44.658 134.3 10 129.6 37.7
2001-08-14 11:54:03 51°39.217 2°44.869 131.3 10 126.8 33.8
2001-08-14 11:55:03 51°39.139 2°45.05 129.5 6.2 123.6 35
2001-08-14 11:56:03 51°39.103 2°45.124 157 1.4 142.3 34.4
2001-08-14 11:57:03 51°39.096 2°45.132 182.5 0.4 157.8 33.3
2001-08-14 11:58:03 51°39.092 2°45.132 194.8 0.2 175.9 33
2001-08-14 11:59:03 51°39.087 2°45.133 197.2 0.3 193 32.4
2001-08-14 12:00:03 51°38.992 2°45.108 182.3 10.3 181 36.7
2001-08-14 12:01:03 51°38.793 2°45.113 180.7 12.3 178.5 31.2
2001-08-14 12:02:03 51°38.59 2°45.101 181.7 12.3 179.6 35.4
2001-08-14 12:03:03 51°38.386 2°45.09 187.5 12.3 185 32.9
2001-08-14 12:04:03 51°38.182 2°45.081 187.5 12.3 184.4 32.1
2001-08-14 12:05:03 51°37.978 2°45.067 184.7 12.2 182.3 34.6
2001-08-14 12:06:03 51°37.775 2°45.056 185.3 11.9 182.4 35.3
2001-08-14 12:07:03 51°37.654 2°45.021 204.2 5.1 200.7 35.2
2001-08-14 12:08:03 51°37.634 2°44.986 261.2 0.5 273.3 36.3
2001-08-14 12:09:03 51°37.639 2°44.974 289.5 0.6 313.7 36.9
2001-08-14 12:10:03 51°37.647 2°44.964 308.7 0.6 330.6 36.9
2001-08-14 12:11:03 51°37.656 2°44.955 314.2 0.9 325.1 36
2001-08-14 12:12:03 51°37.677 2°44.827 270 8.1 269.6 35
2001-08-14 12:13:03 51°37.671 2°44.564 270.7 10.4 268.2 32.7
2001-08-14 12:14:03 51°37.681 2°44.28 276.8 10.7 274.5 36.6
2001-08-14 12:15:03 51°37.687 2°44.027 279.8 7.3 276.7 34.5
2001-08-14 12:16:03 51°37.706 2°43.904 278.7 2.8 279.5 32.6
2001-08-14 12:17:03 51°37.709 2°43.882 245 0.5 287.3 32.4
2001-08-14 12:18:03 51°37.711 2°43.872 235.8 0.4 290.2 32.9
2001-08-14 12:19:03 51°37.714 2°43.862 232.2 0.4 292.4 33.9
2001-08-14 12:20:03 51°37.697 2°43.739 273.2 9.1 269.9 34.5
2001-08-14 12:21:03 51°37.73 2°43.439 284 12 281 33.6
2001-08-14 12:22:03 51°37.773 2°43.125 280.5 11.3 277.9 34.9
2001-08-14 12:23:03 51°37.809 2°42.937 299.5 5.3 295.3 35.8
2001-08-14 12:24:03 51°37.819 2°42.892 260.5 0.4 332.5 36.8
2001-08-14 12:25:03 51°37.825 2°42.886 257.7 0.5 327.6 19.9
2001-08-14 12:26:03 51°37.831 2°42.879 266.3 0.4 319.1 23.9
2001-08-14 12:27:03 51°37.83 2°42.842 252 4.3 252.7 36
2001-08-14 12:28:03 51°37.701 2°42.742 194.2 11.7 193.6 35.5
2001-08-14 12:29:03 51°37.487 2°42.674 192.7 13.4 192.4 35.7
2001-08-14 12:30:03 51°37.266 2°42.617 191 13.5 189.7 36.1
2001-08-14 12:31:03 51°37.046 2°42.551 185.3 13.4 185.2 36.4
2001-08-14 12:32:03 51°36.826 2°42.507 189.7 13.4 188.7 36.9
2001-08-14 12:33:03 51°36.604 2°42.446 189.5 13.6 189.4 36.5
2001-08-14 12:34:03 51°36.381 2°42.382 192 13.6 191.2 37.4
2001-08-14 12:35:03 51°36.203 2°42.336 180 7.6 180.3 38
2001-08-14 12:36:03 51°36.147 2°42.332 208.2 0.7 198.8 41.1
2001-08-14 12:37:03 51°36.139 2°42.324 223.8 0.5 218.7 40.9
2001-08-14 12:38:03 51°36.132 2°42.315 232.7 0.5 228 41
2001-08-14 12:39:03 51°36.128 2°42.306 238.2 0.5 227.8 40.9
2001-08-14 12:40:03 51°36.081 2°42.261 193.2 6.7 193.7 40.8
2001-08-14 12:41:03 51°35.974 2°42.401 114.3 9.9 113.6 39.9
2001-08-14 12:42:03 51°35.929 2°42.677 112.7 11 110.2 41.6
2001-08-14 12:43:03 51°35.864 2°42.945 117.3 9.5 115.1 40.6
2001-08-14 12:44:03 51°35.834 2°43.116 105 5.5 103.5 41
2001-08-14 12:45:03 51°35.822 2°43.167 123 0.1 186.3 41
2001-08-14 12:46:03 51°35.821 2°43.169 128.7 0.2 126.5 41
2001-08-14 12:47:03 51°35.818 2°43.172 133.7 0.2 158.3 40.7
2001-08-14 12:48:03 51°35.814 2°43.174 138.7 0.3 160.1 40.8
2001-08-14 12:49:03 51°35.808 2°43.177 141.5 0.3 161.6 40.9
2001-08-14 12:50:03 51°35.802 2°43.179 145.5 0.4 172.1 40.9
2001-08-14 12:51:03 51°35.796 2°43.181 150.5 0.4 173.8 40.8
2001-08-14 12:52:03 51°35.788 2°43.182 154.2 0.5 176.2 40.7
2001-08-14 12:53:03 51°35.779 2°43.182 156.7 0.7 172.5 40.2
2001-08-14 12:54:03 51°35.718 2°43.247 129.7 6.2 132.6 37
2001-08-14 12:55:03 51°35.642 2°43.436 117.8 10.5 118.5 39.2
2001-08-14 12:56:03 51°35.564 2°43.711 115.2 11.6 114.3 38.4
2001-08-14 12:57:03 51°35.476 2°43.932 138.7 7.3 137.4 36.5
2001-08-14 12:58:03 51°35.425 2°44.038 115.3 3.6 117.8 35.8
2001-08-14 12:59:03 51°35.418 2°44.051 95.7 0.2 158.8 35.5
2001-08-14 13:00:03 51°35.416 2°44.055 84.2 0.2 130.6 35.7
2001-08-14 13:01:03 51°35.414 2°44.059 73.8 0.2 111.1 35.9
2001-08-14 13:02:03 51°35.416 2°44.13 101.8 5.1 99.7 35.3
2001-08-14 13:03:03 51°35.305 2°44.213 185.5 10.2 184.5 35.5
2001-08-14 13:04:03 51°35.132 2°44.072 211.5 12.9 210.8 35.5
2001-08-14 13:05:03 51°34.944 2°43.862 217.5 13.9 216 35.7
2001-08-14 13:06:03 51°34.766 2°43.627 219 13.8 218.2 35
2001-08-14 13:07:03 51°34.588 2°43.393 217.5 13.8 217.3 38.4
2001-08-14 13:08:03 51°34.405 2°43.168 217.2 13.8 215.8 39.2
2001-08-14 13:09:03 51°34.226 2°42.935 219 13.9 217.7 35.3
2001-08-14 13:10:03 51°34.044 2°42.704 217.2 14 216.2 34.8
2001-08-14 13:11:03 51°33.887 2°42.496 231.2 9 227.6 35.4
2001-08-14 13:12:03 51°33.854 2°42.406 240.2 0.5 233.9 35
2001-08-14 13:13:03 51°33.851 2°42.398 233.3 0.4 247 22.4
2001-08-14 13:14:03 51°33.848 2°42.386 239.7 0.5 239.4 34.5
2001-08-14 13:15:03 51°33.842 2°42.372 244.8 1.1 238.5 33.9
2001-08-14 13:16:03 51°33.851 2°42.188 296.7 10.5 289.4 35.3
2001-08-14 13:17:03 51°33.93 2°41.899 301.5 12.2 295 37
2001-08-14 13:18:03 51°34.008 2°41.711 316 6.2 307.4 37.6
2001-08-14 13:19:03 51°34.027 2°41.658 312.2 0.4 196.5 15.9
2001-08-14 13:20:03 51°34.022 2°41.65 315 0.5 239.2 20.8
2001-08-14 13:21:03 51°34.018 2°41.638 317.7 0.5 243.3 37.8
2001-08-14 13:22:03 51°34.017 2°41.62 315.5 1.8 294.4 38.2
2001-08-14 13:23:03 51°34.048 2°41.423 292.8 10.1 285.8 39
2001-08-14 13:24:03 51°34.131 2°41.161 302.7 11.4 296.7 38.3
2001-08-14 13:25:03 51°34.17 2°40.942 277.7 6.4 272.4 37.5
2001-08-14 13:26:03 51°34.163 2°40.877 260.3 0.2 226.5 -999
2001-08-14 13:27:03 51°34.159 2°40.868 266.2 0.5 225.7 37.2
2001-08-14 13:28:03 51°34.152 2°40.857 263.5 0.6 229.5 37.9
2001-08-14 13:29:03 51°34.145 2°40.844 261 0.7 230.6 37.8
2001-08-14 13:30:03 51°34.138 2°40.829 257.7 0.7 229.3 37.7
2001-08-14 13:31:03 51°34.129 2°40.812 252.2 0.8 229.2 37.4
2001-08-14 13:32:03 51°34.12 2°40.796 245.8 0.9 228.8 37.4
2001-08-14 13:33:03 51°34.101 2°40.762 233.3 4.1 228.6 37.5
2001-08-14 13:34:03 51°33.945 2°40.657 199.8 13.2 199.3 36.9
2001-08-14 13:35:03 51°33.729 2°40.512 202 14.3 201.8 38.8
2001-08-14 13:36:03 51°33.512 2°40.359 200.7 14.3 200.6 40.2
2001-08-14 13:37:03 51°33.29 2°40.225 198.7 14.3 198.8 39
2001-08-14 13:38:03 51°33.073 2°40.075 201.2 14.2 200.8 37.8
2001-08-14 13:39:03 51°32.851 2°39.939 201.8 14.3 201.3 37.2
2001-08-14 13:40:03 51°32.629 2°39.807 200 14.2 200 37.1
2001-08-14 13:41:03 51°32.408 2°39.678 200 14.2 199.7 38
2001-08-14 13:42:03 51°32.204 2°39.552 204.2 10.6 203 36.6
2001-08-14 13:43:03 51°32.103 2°39.444 230.5 5 224.7 38.2
2001-08-14 13:44:03 51°32.087 2°39.43 258.2 0.7 174.4 19.9
2001-08-14 13:45:03 51°32.075 2°39.428 250.2 0.7 189.7 38
2001-08-14 13:46:03 51°32.064 2°39.423 244.2 0.7 202.6 37.8
2001-08-14 13:47:03 51°32.028 2°39.372 219.2 6.2 216.8 37.1
2001-08-14 13:48:03 51°31.89 2°39.416 140.8 10 143.8 37.9
2001-08-14 13:49:03 51°31.791 2°39.645 118.2 10.8 119.7 37.9
2001-08-14 13:50:03 51°31.697 2°39.867 129.7 8.2 132 37.2
2001-08-14 13:51:03 51°31.631 2°39.951 127.3 3.1 142.5 35.3
2001-08-14 13:52:03 51°31.613 2°39.949 119.3 0.9 203.8 36.9
2001-08-14 13:53:03 51°31.6 2°39.941 112.2 0.8 197.4 37
2001-08-14 13:54:03 51°31.588 2°39.936 104.8 0.8 195.3 36.2
2001-08-14 13:55:03 51°31.573 2°39.976 98.3 4.8 104.8 36.2
2001-08-14 13:56:03 51°31.515 2°40.224 112 11.7 113.4 35.1
2001-08-14 13:57:03 51°31.438 2°40.521 109.7 12.1 111.4 34.5
2001-08-14 13:58:03 51°31.366 2°40.819 110.7 11.8 112.7 35.7
2001-08-14 13:59:03 51°31.293 2°40.97 139.2 4.6 146 34.7
2001-08-14 14:00:03 51°31.27 2°40.971 111.2 1.3 230 17.6
2001-08-14 14:01:03 51°31.256 2°40.948 112.3 1.2 222.1 20.3
2001-08-14 14:02:03 51°31.24 2°40.927 119.2 1.2 215.8 33.1
2001-08-14 14:03:03 51°31.224 2°40.911 123.8 1.2 209.9 33.8
2001-08-14 14:04:03 51°31.198 2°40.944 105.3 5.1 114.7 35.6
2001-08-14 14:05:03 51°31.214 2°41.185 75 11.8 75 34.7
2001-08-14 14:06:03 51°31.285 2°41.498 70.3 12.7 68.5 34.4
2001-08-14 14:07:03 51°31.357 2°41.811 68.8 12.5 66.9 34.4
2001-08-14 14:08:03 51°31.429 2°42.127 73.2 12.6 71.7 34.6
2001-08-14 14:09:03 51°31.507 2°42.437 70.5 12.5 68.7 32.9
2001-08-14 14:10:03 51°31.587 2°42.745 69.2 12.5 66.9 31.4
2001-08-14 14:11:03 51°31.677 2°43.043 64.2 12.4 61.5 28.5
2001-08-14 14:12:03 51°31.77 2°43.335 65.8 12.2 63.2 21.8
2001-08-14 14:13:03 51°31.862 2°43.627 61 12.1 58 26.1
2001-08-14 14:14:03 51°31.945 2°43.925 69.3 12.3 68.2 30.2
2001-08-14 14:15:03 51°32.021 2°44.23 68.2 12.3 66.8 32.4
2001-08-14 14:16:03 51°32.072 2°44.462 80.7 5.9 83.6 33.8
2001-08-14 14:17:03 51°32.064 2°44.522 65.2 0.6 187.5 35.3
2001-08-14 14:18:03 51°32.055 2°44.514 39.8 0.6 219.4 34.7
2001-08-14 14:19:03 51°32.047 2°44.5 28.3 0.8 232.5 33.4
2001-08-14 14:20:03 51°32.046 2°44.488 26.8 1.4 12 33.4
2001-08-14 14:21:03 51°32.061 2°44.668 104.3 11.1 107.7 34.9
2001-08-14 14:22:03 51°31.963 2°44.967 118.7 13.1 122.4 30.5
2001-08-14 14:23:03 51°31.821 2°45.236 133.5 13.3 137.3 33
2001-08-14 14:24:03 51°31.635 2°45.439 143.8 13.5 148 32
2001-08-14 14:25:03 51°31.425 2°45.581 159.3 13.9 162.3 31.7
2001-08-14 14:26:03 51°31.208 2°45.708 153.7 13.8 157.7 29.7
2001-08-14 14:27:03 51°30.982 2°45.797 163.8 14.1 167.4 32.3
2001-08-14 14:28:03 51°30.789 2°45.848 164.5 8.4 172.2 33.4
2001-08-14 14:29:03 51°30.719 2°45.875 118.2 1.5 179.4 32.6
2001-08-14 14:30:03 51°30.702 2°45.849 100 1.5 223 28.8
2001-08-14 14:31:03 51°30.684 2°45.824 97.8 1.4 222.1 30.5
2001-08-14 14:32:03 51°30.667 2°45.818 88.3 2.2 106.5 30.8
2001-08-14 14:33:03 51°30.76 2°45.939 27.7 10.9 20.2 33.8
2001-08-14 14:34:03 51°30.955 2°46.01 15.8 12.2 6.8 31.1
2001-08-14 14:35:03 51°31.158 2°46.057 13.7 12.4 4.5 32.5
2001-08-14 14:36:03 51°31.363 2°46.085 17.3 12.3 8.8 34.2
2001-08-14 14:37:03 51°31.565 2°46.144 16.5 12.4 8.1 36.1
2001-08-14 14:38:03 51°31.768 2°46.195 15.7 12.3 7.6 31.8
2001-08-14 14:39:03 51°31.971 2°46.248 18.5 12.3 10.1 29.5
2001-08-14 14:40:03 51°32.172 2°46.302 19 12.3 10.8 28.8
2001-08-14 14:41:03 51°32.374 2°46.361 19.3 12.3 11.2 30.8
2001-08-14 14:42:03 51°32.576 2°46.414 17.5 12.4 8.9 30.3
2001-08-14 14:43:03 51°32.778 2°46.466 18.5 12.3 10.5 31.6
2001-08-14 14:44:03 51°32.979 2°46.525 17.7 11.8 9.7 32.9
2001-08-14 14:45:03 51°33.092 2°46.583 41.8 4.2 32 31.6
2001-08-14 14:46:03 51°33.11 2°46.586 13.7 0.8 299.6 30.9
2001-08-14 14:47:03 51°33.115 2°46.561 359.7 1.1 280.7 30.6
2001-08-14 14:48:03 51°33.117 2°46.532 354.5 1.2 273 32
2001-08-14 14:49:03 51°33.177 2°46.536 37.3 7.7 30.5 28.6
2001-08-14 14:50:03 51°33.309 2°46.736 54 11.9 50.7 30.8
2001-08-14 14:51:03 51°33.435 2°46.985 54.7 12.2 51.4 29.7
2001-08-14 14:52:03 51°33.559 2°47.243 56.2 12.1 53.1 30.3
2001-08-14 14:53:03 51°33.681 2°47.5 57.7 12.1 54.7 30.2
2001-08-14 14:54:03 51°33.8 2°47.762 58.2 12.1 55.2 30.4
2001-08-14 14:55:03 51°33.918 2°48.025 59 12.2 55.8 27.3
2001-08-14 14:56:03 51°34.044 2°48.276 52.5 12.1 49.4 30.8
2001-08-14 14:57:03 51°34.161 2°48.497 45 7.9 41.6 29.5
2001-08-14 14:58:03 51°34.209 2°48.544 57.5 0.2 167 29.6
2001-08-14 14:59:03 51°34.201 2°48.547 82.8 0.7 172.9 30.3
2001-08-14 15:00:03 51°34.186 2°48.547 92.3 0.9 184.4 30.5
2001-08-14 15:01:03 51°34.189 2°48.594 53.3 4.3 52.2 29.8
2001-08-14 15:02:03 51°34.281 2°48.573 333.3 7.9 321.3 28.2
2001-08-14 15:03:03 51°34.443 2°48.407 336 12.8 326.2 25.2
2001-08-14 15:04:03 51°34.623 2°48.22 336.3 13 326.2 27.3
2001-08-14 15:05:03 51°34.809 2°48.041 339.3 13 329.9 32.4
2001-08-14 15:06:03 51°34.995 2°47.863 337.5 13 327.2 31.7
2001-08-14 15:07:03 51°35.179 2°47.682 340.3 13 330.4 34.5
2001-08-14 15:08:03 51°35.357 2°47.501 339 11.2 328.4 35.1
2001-08-14 15:09:03 51°35.453 2°47.431 9.5 2.9 347.6 33.7
2001-08-14 15:10:03 51°35.449 2°47.416 46.3 0.9 219.4 34
2001-08-14 15:11:03 51°35.436 2°47.402 75.7 1.1 208.8 33.6
2001-08-14 15:12:03 51°35.419 2°47.388 93 1.2 204.5 34.7
2001-08-14 15:13:03 51°35.449 2°47.471 37.8 7.8 34.4 33.7
2001-08-14 15:14:03 51°35.593 2°47.652 42.3 12 38 35.4
2001-08-14 15:15:03 51°35.741 2°47.868 46.5 12.1 42.4 37.2
2001-08-14 15:16:03 51°35.893 2°48.083 44.8 12.2 40.7 37.2
2001-08-14 15:17:03 51°36.045 2°48.3 47 12.2 42.8 39.3
2001-08-14 15:18:03 51°36.195 2°48.524 46.2 12.2 42.2 35.9
2001-08-14 15:19:03 51°36.345 2°48.746 44.8 12.3 40.7 37.7
2001-08-14 15:20:03 51°36.464 2°48.944 57.3 7.1 55.8 30.4
2001-08-14 15:21:03 51°36.477 2°49.03 75.5 0.7 151.3 35
2001-08-14 15:22:03 51°36.466 2°49.032 64 0.6 179.5 34
2001-08-14 15:23:03 51°36.456 2°49.028 56.3 0.7 200 32.9
2001-08-14 15:24:03 51°36.453 2°49.033 48.5 2.1 48.1 32.4
2001-08-14 15:25:03 51°36.581 2°49.066 11.3 11.2 2.5 39.4
2001-08-14 15:26:03 51°36.782 2°49.085 11.5 12.3 3.1 33.1
2001-08-14 15:27:03 51°36.984 2°49.126 11.3 12.3 3 38.1
2001-08-14 15:28:03 51°37.19 2°49.133 10.8 12.3 2.5 38.1
2001-08-14 15:29:03 51°37.386 2°49.2 26.8 12 20.1 39.1
2001-08-14 15:30:03 51°37.582 2°49.279 21.3 12.2 14.3 38.6
2001-08-14 15:31:03 51°37.782 2°49.309 15.2 12.1 7.5 38
2001-08-14 15:32:03 51°37.98 2°49.368 15.8 12.2 8.5 38.6
2001-08-14 15:33:03 51°38.149 2°49.401 10.2 7.1 0.8 36.3
2001-08-14 15:34:03 51°38.2 2°49.382 30.8 0.3 263.9 37.7
2001-08-14 15:35:03 51°38.193 2°49.378 59.8 0.6 190.5 37
2001-08-14 15:36:03 51°38.181 2°49.374 66.2 0.9 190.6 36.4
2001-08-14 15:37:03 51°38.167 2°49.374 67.3 0.9 120.9 36.5
2001-08-14 15:38:03 51°38.12 2°49.512 130.8 10.7 135.1 36
2001-08-14 15:39:03 51°37.945 2°49.727 140.3 13.8 144.2 38
2001-08-14 15:40:03 51°37.761 2°49.946 138.7 13.7 141.6 37.9
2001-08-14 15:41:03 51°37.591 2°50.187 136 13.6 139.3 36.3
2001-08-14 15:42:03 51°37.409 2°50.408 139.8 13.7 143 34.5
2001-08-14 15:43:03 51°37.217 2°50.606 141.3 13.5 144.8 36
2001-08-14 15:44:03 51°37.119 2°50.753 117.7 4.5 132.5 36.2
2001-08-14 15:45:04 51°37.093 2°50.756 151.2 1.2 232.9 5.4
2001-08-14 15:46:04 51°37.08 2°50.735 168.3 1.1 222.2 35
2001-08-14 15:47:04 51°37.065 2°50.716 172.7 1.2 217 35.7
2001-08-14 15:48:04 51°37.009 2°50.708 173 8.1 177.1 35.2
2001-08-14 15:49:04 51°36.795 2°50.735 173 14.2 175.3 34.2
2001-08-14 15:50:04 51°36.557 2°50.768 169.3 14.4 172 29.1
2001-08-14 15:51:04 51°36.318 2°50.813 169.8 14.4 172.1 31.2
2001-08-14 15:52:04 51°36.079 2°50.854 173 14.5 175.1 23.9
2001-08-14 15:53:04 51°35.841 2°50.902 170.3 14.4 171.9 24.7
2001-08-14 15:54:04 51°35.603 2°50.95 173.8 14.5 174.8 25.7
2001-08-14 15:55:04 51°35.366 2°51.004 169.5 14.4 170.7 25.6
2001-08-14 15:56:04 51°35.128 2°51.053 171.2 14.4 172.3 28.8
2001-08-14 15:57:04 51°34.895 2°51.119 170 14.2 171.3 33.7
2001-08-14 15:58:04 51°34.658 2°51.161 171.8 14.3 174.5 34.8
2001-08-14 15:59:04 51°34.422 2°51.208 169.7 14.2 171.8 39.3
2001-08-14 16:00:04 51°34.186 2°51.246 171.8 14.3 174.4 39.4
2001-08-14 16:01:04 51°33.953 2°51.302 168.3 14.1 171.1 36.6
2001-08-14 16:02:04 51°33.718 2°51.335 171.3 14.2 174.1 33
2001-08-14 16:03:04 51°33.483 2°51.379 169.5 14.1 172.1 35.4
2001-08-14 16:04:04 51°33.249 2°51.422 172.7 14.2 175.1 32.6
2001-08-14 16:05:04 51°33.013 2°51.464 169.8 14.2 172.8 30.4
2001-08-14 16:06:04 51°32.779 2°51.508 171.2 14.2 173.9 29
2001-08-14 16:07:04 51°32.543 2°51.552 171.7 14.2 174 30.3
2001-08-14 16:08:04 51°32.307 2°51.589 171.8 14.3 174.6 29.1
2001-08-14 16:09:04 51°32.072 2°51.628 172.2 14.2 174.8 26.5
2001-08-14 16:10:04 51°31.836 2°51.672 171.7 14.3 174 26.5
2001-08-14 16:11:04 51°31.6 2°51.713 170.2 14.3 172.2 24.3
2001-08-14 16:12:04 51°31.365 2°51.764 171 14.2 172.9 23.9
2001-08-14 16:13:04 51°31.128 2°51.807 171.5 14.3 173.1 21.3
2001-08-14 16:14:04 51°30.892 2°51.859 170.7 14.4 172.3 21
2001-08-14 16:15:04 51°30.656 2°51.907 171.8 14.4 173.3 19.6
2001-08-14 16:16:04 51°30.418 2°51.952 172.2 14.4 173.6 23.7
2001-08-14 16:17:04 51°30.182 2°51.996 170.8 14.2 172.4 29.2
2001-08-14 16:18:04 51°29.949 2°52.045 170.5 14.1 172.3 31.2
2001-08-14 16:19:04 51°29.717 2°52.096 171.2 14 173.5 30.1
2001-08-14 16:20:04 51°29.485 2°52.134 171.3 14 174.2 29.7
2001-08-14 16:21:04 51°29.252 2°52.166 172.2 14.1 175.4 30.1
2001-08-14 16:22:04 51°29.018 2°52.2 171 14.1 174.6 29.8
2001-08-14 16:23:04 51°28.785 2°52.24 172.5 14.1 176 28.8
2001-08-14 16:24:04 51°28.551 2°52.256 175 14.2 177.8 27.9
2001-08-14 16:25:04 51°28.315 2°52.268 175.5 14.2 178.8 25.1
2001-08-14 16:26:04 51°28.078 2°52.272 175.8 14.3 179.4 23.4
2001-08-14 16:27:04 51°27.84 2°52.285 173.8 14.3 177 21.5
2001-08-14 16:28:04 51°27.602 2°52.308 172.7 14.3 175.2 19.6
2001-08-14 16:29:04 51°27.365 2°52.339 172.7 14.3 174.9 21.8
2001-08-14 16:30:04 51°27.129 2°52.38 170.5 14.2 172.7 20.1
2001-08-14 16:31:04 51°26.896 2°52.425 172 14.1 174.8 26.5
2001-08-14 16:32:04 51°26.663 2°52.463 171.3 14.1 174.4 27.8
2001-08-14 16:33:04 51°26.429 2°52.466 179.8 14.2 183 27.5
2001-08-14 16:34:04 51°26.192 2°52.443 181.3 14.2 184.1 28.1
2001-08-14 16:35:04 51°25.955 2°52.417 179.8 14.2 182.6 27.6
2001-08-14 16:36:04 51°25.718 2°52.4 180 14.3 183 26.4
2001-08-14 16:37:04 51°25.481 2°52.388 179 14.2 181.7 24.3
2001-08-14 16:38:04 51°25.244 2°52.373 179.7 14.2 181.6 24.9
2001-08-14 16:39:04 51°25.007 2°52.358 178.7 14.3 181.7 24.7
2001-08-14 16:40:04 51°24.769 2°52.341 181.3 14.4 183.8 22.5
2001-08-14 16:41:04 51°24.531 2°52.328 179.2 14.3 181.6 19.5
2001-08-14 16:42:04 51°24.295 2°52.309 187.3 14.2 188.1 18.1
2001-08-14 16:43:04 51°24.063 2°52.236 189 14.2 190 16.9
2001-08-14 16:44:04 51°23.83 2°52.167 189.7 14.2 190 18.1
2001-08-14 16:45:04 51°23.598 2°52.111 188.8 14.1 189.1 15.7
2001-08-14 16:46:04 51°23.365 2°52.048 189.5 14.2 189.6 19
2001-08-14 16:47:04 51°23.133 2°51.978 189.7 14.2 190.9 21.6
2001-08-14 16:48:04 51°22.899 2°51.915 187 14.2 188.2 22.2
2001-08-14 16:49:04 51°22.665 2°51.851 188.3 14.3 189.5 23.4
2001-08-14 16:50:04 51°22.429 2°51.813 181.2 14.1 182.4 23.4
2001-08-14 16:51:04 51°22.195 2°51.819 178 14 178.9 23.6
2001-08-14 16:52:04 51°21.961 2°51.83 177 14 177.9 24.5
2001-08-14 16:53:04 51°21.729 2°51.837 177 13.8 178.9 24.3
2001-08-14 16:54:04 51°21.498 2°51.848 175 13.9 177.2 22.3
2001-08-14 16:55:04 51°21.267 2°51.865 175.8 13.9 177.5 19.9
2001-08-14 16:56:04 51°21.036 2°51.891 176 13.9 176.9 17.5
2001-08-14 16:57:04 51°20.804 2°51.908 175.8 13.9 176.6 15.1
2001-08-14 16:58:04 51°20.573 2°51.935 175.2 13.9 175.1 13.9
2001-08-14 16:59:04 51°20.341 2°51.952 178 14 177.8 14.7
2001-08-14 17:00:04 51°20.109 2°51.962 181.3 13.9 180.8 15.7
2001-08-14 17:01:04 51°19.878 2°51.959 179.7 14 179.6 16.3
2001-08-14 17:02:04 51°19.644 2°51.954 179.8 14 179.9 16.3
2001-08-14 17:03:04 51°19.411 2°51.96 178.5 14 178.3 16.2
2001-08-14 17:04:04 51°19.18 2°51.962 180.2 14 179.8 15.7
2001-08-14 17:05:04 51°18.949 2°51.982 177 13.9 176.1 14.7
2001-08-14 17:06:04 51°18.718 2°52.008 177 13.9 176.1 13.6
2001-08-14 17:07:04 51°18.487 2°52.031 178.2 13.9 176.9 12.7
2001-08-14 17:08:04 51°18.258 2°52.052 177.8 13.7 176.6 12
2001-08-14 17:09:04 51°18.029 2°52.072 178.3 13.7 176.7 11.4
2001-08-14 17:10:04 51°17.8 2°52.097 178 13.8 176.3 11.2
2001-08-14 17:11:04 51°17.573 2°52.14 172.8 13.7 171.1 11.4
2001-08-14 17:12:04 51°17.349 2°52.214 166.2 13.8 164.8 11.3
2001-08-14 17:13:04 51°17.135 2°52.338 161.8 13.7 160.1 11
2001-08-14 17:14:04 51°16.925 2°52.473 159.2 13.6 157.2 10.6
2001-08-14 17:15:04 51°16.718 2°52.624 156.5 13.6 154.6 11.2
2001-08-14 17:16:04 51°16.513 2°52.785 154.3 13.7 152.2 12.7
2001-08-14 17:17:04 51°16.314 2°52.958 152.8 13.6 150.3 13.3
2001-08-14 17:18:04 51°16.12 2°53.14 150.5 13.5 148 13.2
2001-08-14 17:19:04 51°15.931 2°53.337 150.7 13.6 147.8 12.9
2001-08-14 17:20:04 51°15.74 2°53.525 149.3 13.5 147.5 12.4
2001-08-14 17:21:04 51°15.551 2°53.719 149 13.5 147.1 11.5
2001-08-14 17:22:04 51°15.363 2°53.913 147.8 13.5 146 10.7
2001-08-14 17:23:04 51°15.179 2°54.115 148.8 13.4 145.8 10
2001-08-14 17:24:04 51°14.994 2°54.311 150.3 13.4 147.5 9.6
2001-08-14 17:25:04 51°14.807 2°54.508 150.7 13.5 147 10.5
2001-08-14 17:26:04 51°14.621 2°54.705 150 13.4 146.1 10.4
2001-08-14 17:27:04 51°14.442 2°54.918 143.8 13.4 139.7 11.3
2001-08-14 17:28:04 51°14.301 2°55.182 132.5 12.1 129.7 11
2001-08-14 17:29:04 51°14.188 2°55.35 146.3 7.6 144 11.2
2001-08-14 17:30:08 51°14.094 2°55.423 160 5.1 157.7 11.1
2001-08-14 17:31:09 51°14.013 2°55.48 157.3 5.6 155 11.1
2001-08-14 17:32:09 51°13.918 2°55.545 157 6.4 156.5 11.1
2001-08-14 17:33:09 51°13.823 2°55.624 150.7 6.5 149.7 11.1
2001-08-14 17:34:08 51°13.757 2°55.71 131.7 4.3 132.2 11.1
2001-08-14 17:35:09 51°13.721 2°55.788 124.7 3.2 123.7 -999
2001-08-14 17:36:09 51°13.698 2°55.852 117.8 2.5 117 -999
2001-08-14 17:37:08 51°13.683 2°55.908 116.5 2.3 113.5 -999
2001-08-14 17:38:09 51°13.677 2°55.922 130.2 0.2 135.9 -999
2001-08-14 17:39:09 51°13.677 2°55.924 128.5 0.1 26.1 -999
2001-08-14 17:40:09 51°13.677 2°55.924 131 0.2 57 -999
2001-08-14 17:41:09 51°13.677 2°55.924 131   286.3 -999
2001-08-14 17:42:07 51°13.677 2°55.924 130.2   358.5 -999